Time;durP1;ratioP1;P1;durP2;ratioP2;P2;SDS_P1;SDS_P2;PMS_P1;PMS_P2;Temp;Humidity;BMP_temperature;BMP_pressure;BME280_temperature;BME280_humidity;BME280_pressure;Samples;Min_cycle;Max_cycle;Signal;HPM_P1;HPM_P2
2023/08/11 00:01:08;;;;;;;10.02;3.22;;;19.30;99.90;;;;;;4842623;29;20041;-57
2023/08/11 00:03:35;;;;;;;4.63;3.08;;;19.20;99.90;;;;;;4843954;29;20113;-53
2023/08/11 00:06:04;;;;;;;5.22;2.95;;;19.20;99.90;;;;;;4843997;29;20177;-50
2023/08/11 00:08:30;;;;;;;4.47;3.10;;;19.20;99.90;;;;;;4841535;29;20041;-48
2023/08/11 00:10:57;;;;;;;5.38;3.05;;;19.20;99.90;;;;;;4858329;29;20506;-52
2023/08/11 00:13:24;;;;;;;5.05;2.78;;;19.20;99.90;;;;;;4843860;29;20046;-51
2023/08/11 00:15:51;;;;;;;6.60;3.33;;;19.20;99.90;;;;;;4843929;29;20136;-53
2023/08/11 00:18:18;;;;;;;4.10;3.10;;;19.20;99.90;;;;;;4843056;29;20038;-53
2023/08/11 00:20:45;;;;;;;3.90;2.90;;;19.20;99.90;;;;;;4843692;29;20494;-51
2023/08/11 00:23:11;;;;;;;5.30;3.00;;;19.10;99.90;;;;;;4841246;29;20042;-55
2023/08/11 00:25:38;;;;;;;5.45;3.00;;;19.10;99.90;;;;;;4843569;29;20045;-54
2023/08/11 00:28:05;;;;;;;4.85;3.08;;;19.10;99.90;;;;;;4843272;29;20041;-54
2023/08/11 00:30:32;;;;;;;5.05;2.90;;;19.00;99.90;;;;;;4842265;29;20064;-54
2023/08/11 00:32:59;;;;;;;5.88;2.97;;;19.00;99.90;;;;;;4843646;29;20113;-54
2023/08/11 00:35:26;;;;;;;5.05;2.90;;;19.00;99.90;;;;;;4844206;29;20037;-54
2023/08/11 00:37:52;;;;;;;5.28;2.90;;;19.00;99.90;;;;;;4858325;29;20050;-56
2023/08/11 00:40:19;;;;;;;6.13;3.10;;;19.00;99.90;;;;;;4857942;29;20137;-56
2023/08/11 00:42:49;;;;;;;5.15;2.90;;;19.00;99.90;;;;;;4843633;29;20066;-53
2023/08/11 00:45:16;;;;;;;7.47;3.45;;;19.00;99.90;;;;;;4844187;29;20385;-55
2023/08/11 00:47:43;;;;;;;6.97;3.42;;;19.00;99.90;;;;;;4843840;29;20046;-54
2023/08/11 00:50:10;;;;;;;8.32;3.17;;;19.00;99.90;;;;;;4843405;29;20557;-51
2023/08/11 00:52:37;;;;;;;5.43;3.28;;;19.00;99.90;;;;;;4843494;29;20461;-53
2023/08/11 00:55:03;;;;;;;8.32;3.15;;;19.00;99.90;;;;;;4843470;29;20053;-55
2023/08/11 00:57:31;;;;;;;6.15;3.28;;;19.00;99.90;;;;;;4857709;29;20061;-52
2023/08/11 00:59:57;;;;;;;8.65;3.13;;;19.00;99.90;;;;;;4843289;29;20057;-51
2023/08/11 01:02:25;;;;;;;7.70;3.42;;;19.00;99.90;;;;;;4843699;29;20069;-55
2023/08/11 01:04:52;;;;;;;8.73;3.47;;;19.00;99.90;;;;;;4843616;29;20505;-55
2023/08/11 01:07:20;;;;;;;7.10;3.45;;;19.00;99.90;;;;;;4857779;29;20550;-53
2023/08/11 01:09:47;;;;;;;6.13;2.95;;;19.00;99.90;;;;;;4857531;29;20070;-54
2023/08/11 01:12:14;;;;;;;6.68;3.22;;;19.00;99.90;;;;;;4843753;29;20081;-56
2023/08/11 01:14:41;;;;;;;6.07;3.10;;;19.00;99.90;;;;;;4857229;29;20058;-56
2023/08/11 01:17:07;;;;;;;8.15;3.33;;;19.00;99.90;;;;;;4843175;29;20106;-57
2023/08/11 01:19:34;;;;;;;6.50;3.47;;;19.00;99.90;;;;;;4857299;29;20075;-55
2023/08/11 01:22:02;;;;;;;7.60;3.40;;;18.90;99.90;;;;;;4857094;29;20046;-53
2023/08/11 01:24:29;;;;;;;8.32;3.35;;;18.90;99.90;;;;;;4857002;29;20050;-54
2023/08/11 01:26:57;;;;;;;8.35;3.22;;;18.90;99.90;;;;;;4841241;29;20038;-56
2023/08/11 01:29:24;;;;;;;9.32;3.55;;;18.80;99.90;;;;;;4842497;29;20441;-55
2023/08/11 01:31:51;;;;;;;5.68;3.15;;;18.80;99.90;;;;;;4856965;29;20125;-55
2023/08/11 01:34:17;;;;;;;6.03;3.60;;;18.70;99.90;;;;;;4841911;29;20064;-56
2023/08/11 01:36:44;;;;;;;9.70;3.00;;;18.70;99.90;;;;;;4842567;29;20045;-54
2023/08/11 01:39:11;;;;;;;9.60;3.50;;;18.70;99.90;;;;;;4842785;29;20124;-55
2023/08/11 01:41:38;;;;;;;8.02;3.15;;;18.70;99.90;;;;;;4842894;29;20390;-53
2023/08/11 01:44:05;;;;;;;6.97;3.40;;;18.70;99.90;;;;;;4842510;29;20509;-58
2023/08/11 01:46:32;;;;;;;9.77;4.03;;;18.70;99.90;;;;;;4856544;29;20041;-56
2023/08/11 01:49:00;;;;;;;7.95;3.67;;;18.70;99.90;;;;;;4856319;29;20626;-54
2023/08/11 01:51:28;;;;;;;8.68;3.80;;;18.70;99.90;;;;;;4842558;29;20098;-54
2023/08/11 01:53:54;;;;;;;9.77;3.33;;;18.60;99.90;;;;;;4842656;29;20054;-51
2023/08/11 01:56:21;;;;;;;7.53;3.15;;;18.60;99.90;;;;;;4842404;29;20053;-52
2023/08/11 01:58:48;;;;;;;8.52;3.53;;;18.70;99.90;;;;;;4856837;29;20160;-55
2023/08/11 02:01:15;;;;;;;11.32;3.55;;;18.60;99.90;;;;;;4856752;29;20133;-56
2023/08/11 02:03:42;;;;;;;17.48;3.60;;;18.60;99.90;;;;;;4842550;29;20041;-55
2023/08/11 02:06:09;;;;;;;12.15;4.25;;;18.60;99.90;;;;;;4842104;29;20038;-53
2023/08/11 02:08:36;;;;;;;10.25;3.88;;;18.60;99.90;;;;;;4842294;29;20038;-53
2023/08/11 02:11:03;;;;;;;9.45;3.92;;;18.60;99.90;;;;;;4842904;29;20049;-55
2023/08/11 02:13:30;;;;;;;14.00;3.97;;;18.60;99.90;;;;;;4856849;29;20050;-52
2023/08/11 02:16:00;;;;;;;11.00;4.10;;;18.60;99.90;;;;;;4842336;29;20038;-51
2023/08/11 02:18:27;;;;;;;13.75;3.67;;;18.60;99.90;;;;;;4856834;29;20042;-53
2023/08/11 02:20:54;;;;;;;12.05;3.83;;;18.50;99.90;;;;;;4841797;29;20038;-56
2023/08/11 02:23:20;;;;;;;12.68;4.07;;;18.50;99.90;;;;;;4843261;29;20049;-55
2023/08/11 02:25:47;;;;;;;14.95;3.83;;;18.50;99.90;;;;;;4855938;29;20042;-51
2023/08/11 02:28:15;;;;;;;15.55;4.18;;;18.50;99.90;;;;;;4853245;29;20133;-49
2023/08/11 02:30:41;;;;;;;12.05;3.85;;;18.50;99.90;;;;;;4841418;29;20042;-48
2023/08/11 02:33:09;;;;;;;14.65;4.38;;;18.60;99.90;;;;;;4855692;29;20049;-50
2023/08/11 02:35:36;;;;;;;14.25;4.00;;;18.60;99.90;;;;;;4840346;29;20049;-54
2023/08/11 02:38:03;;;;;;;14.73;4.18;;;18.70;99.90;;;;;;4839994;29;20062;-56
2023/08/11 02:40:29;;;;;;;12.48;3.72;;;18.80;99.90;;;;;;4855569;29;20049;-51
2023/08/11 02:42:56;;;;;;;13.90;3.47;;;18.80;99.90;;;;;;4843901;29;20046;-53
2023/08/11 02:45:23;;;;;;;14.52;3.92;;;19.00;99.90;;;;;;4845190;29;20046;-56
2023/08/11 02:47:50;;;;;;;12.70;3.33;;;19.00;99.90;;;;;;4859397;29;20065;-55
2023/08/11 02:50:17;;;;;;;16.70;3.53;;;19.00;99.90;;;;;;4845095;29;20049;-53
2023/08/11 02:52:44;;;;;;;13.45;3.35;;;19.10;99.90;;;;;;4859310;29;20391;-54
2023/08/11 02:55:14;;;;;;;17.15;3.90;;;19.10;99.90;;;;;;4859019;29;20049;-53
2023/08/11 02:57:41;;;;;;;15.27;3.40;;;19.10;99.90;;;;;;4843511;29;20054;-55
2023/08/11 03:00:12;;;;;;;15.25;3.90;;;19.10;99.90;;;;;;4845068;29;20050;-53
2023/08/11 03:02:39;;;;;;;12.70;3.30;;;19.20;99.90;;;;;;4859102;29;20105;-52
2023/08/11 03:05:07;;;;;;;14.30;3.95;;;19.20;99.90;;;;;;4845032;29;20038;-55
2023/08/11 03:07:36;;;;;;;13.77;4.30;;;19.20;99.90;;;;;;4851201;29;20098;-55
2023/08/11 03:10:03;;;;;;;16.45;4.28;;;19.20;99.90;;;;;;4845014;29;20045;-56
2023/08/11 03:12:30;;;;;;;15.18;3.33;;;19.20;99.90;;;;;;4843294;29;20049;-51
2023/08/11 03:14:57;;;;;;;14.65;3.70;;;19.20;99.90;;;;;;4858995;29;20042;-54
2023/08/11 03:17:24;;;;;;;17.00;3.90;;;19.20;99.90;;;;;;4858828;29;20050;-53
2023/08/11 03:19:52;;;;;;;18.05;4.10;;;19.20;99.90;;;;;;4843128;29;20129;-54
2023/08/11 03:22:19;;;;;;;17.17;3.83;;;19.20;99.90;;;;;;4858992;29;20052;-57
2023/08/11 03:24:47;;;;;;;13.38;3.85;;;19.20;99.90;;;;;;4858922;29;20066;-55
2023/08/11 03:27:17;;;;;;;16.83;3.80;;;19.10;99.90;;;;;;4842281;29;20034;-54
2023/08/11 03:29:44;;;;;;;10.93;3.38;;;19.10;99.90;;;;;;4844637;29;20050;-56
2023/08/11 03:32:11;;;;;;;17.55;3.42;;;19.20;99.90;;;;;;4844383;29;20041;-54
2023/08/11 03:34:38;;;;;;;12.00;3.53;;;19.20;99.90;;;;;;4858571;29;20099;-54
2023/08/11 03:37:06;;;;;;;13.82;3.38;;;19.20;99.90;;;;;;4844209;29;20579;-51
2023/08/11 03:39:33;;;;;;;10.27;3.30;;;19.20;99.90;;;;;;4858489;29;20073;-55
2023/08/11 03:42:00;;;;;;;10.95;3.38;;;19.20;99.90;;;;;;4850803;29;20099;-57
2023/08/11 03:44:27;;;;;;;11.63;3.30;;;19.20;99.90;;;;;;4844133;29;20121;-54
2023/08/11 03:46:54;;;;;;;12.88;2.83;;;19.20;99.90;;;;;;4841588;29;20125;-57
2023/08/11 03:49:21;;;;;;;12.07;3.08;;;19.30;99.90;;;;;;4858166;29;20061;-55
2023/08/11 03:51:48;;;;;;;11.07;3.10;;;19.30;99.90;;;;;;4857953;29;20455;-57
2023/08/11 03:54:15;;;;;;;10.35;3.33;;;19.30;99.90;;;;;;4842631;29;20115;-51
2023/08/11 03:56:43;;;;;;;11.27;3.22;;;19.40;99.90;;;;;;4843733;29;20053;-55
2023/08/11 03:59:11;;;;;;;10.70;2.70;;;19.40;99.90;;;;;;4842595;29;20046;-54
2023/08/11 04:01:38;;;;;;;13.52;3.83;;;19.40;99.90;;;;;;4857834;29;20038;-51
2023/08/11 04:04:06;;;;;;;12.75;3.47;;;19.40;99.90;;;;;;4858080;29;20057;-55
2023/08/11 04:06:33;;;;;;;11.98;3.28;;;19.40;99.90;;;;;;4842335;29;20046;-51
2023/08/11 04:09:01;;;;;;;10.48;2.97;;;19.40;99.90;;;;;;4842371;29;20049;-53
2023/08/11 04:11:27;;;;;;;10.60;2.67;;;19.40;99.90;;;;;;4843866;29;20046;-53
2023/08/11 04:13:54;;;;;;;9.25;3.25;;;19.40;99.90;;;;;;4855417;29;20406;-50
2023/08/11 04:16:21;;;;;;;9.95;3.35;;;19.50;99.90;;;;;;4857718;29;20370;-49
2023/08/11 04:18:48;;;;;;;8.93;2.95;;;19.40;99.90;;;;;;4857945;29;20122;-53
2023/08/11 04:21:15;;;;;;;11.32;3.03;;;19.40;99.90;;;;;;4842153;29;20048;-54
2023/08/11 04:23:42;;;;;;;8.75;2.80;;;19.50;99.90;;;;;;4843798;29;20041;-53
2023/08/11 04:26:10;;;;;;;9.07;2.95;;;19.50;99.90;;;;;;4841926;29;20126;-56
2023/08/11 04:28:38;;;;;;;12.18;3.25;;;19.50;99.90;;;;;;4842216;29;20038;-53
2023/08/11 04:31:09;;;;;;;8.25;2.88;;;19.50;99.90;;;;;;4842354;29;20082;-52
2023/08/11 04:33:37;;;;;;;13.13;3.28;;;19.50;99.90;;;;;;4857756;29;20049;-53
2023/08/11 04:36:04;;;;;;;14.90;4.53;;;19.50;99.90;;;;;;4857425;29;20050;-51
2023/08/11 04:38:32;;;;;;;9.10;3.10;;;19.50;99.90;;;;;;4857494;29;20061;-57
2023/08/11 04:40:59;;;;;;;9.43;3.10;;;19.50;99.90;;;;;;4841980;29;20049;-52
2023/08/11 04:43:26;;;;;;;10.73;3.40;;;19.50;99.90;;;;;;4857451;29;20463;-53
2023/08/11 04:45:54;;;;;;;9.40;3.45;;;19.50;99.90;;;;;;4857100;29;20068;-54
2023/08/11 04:48:21;;;;;;;13.00;3.90;;;19.50;99.90;;;;;;4857338;29;20038;-54
2023/08/11 04:50:51;;;;;;;11.35;3.13;;;19.50;99.90;;;;;;4842018;29;20042;-54
2023/08/11 04:53:19;;;;;;;8.60;2.88;;;19.50;99.90;;;;;;4857254;29;20092;-53
2023/08/11 04:55:46;;;;;;;11.10;3.10;;;19.50;99.90;;;;;;4842861;29;20473;-52
2023/08/11 04:58:13;;;;;;;8.95;2.80;;;19.50;99.90;;;;;;4857426;29;20506;-53
2023/08/11 05:00:40;;;;;;;8.93;2.63;;;19.50;99.90;;;;;;4842847;29;20038;-53
2023/08/11 05:03:07;;;;;;;9.77;3.30;;;19.60;99.90;;;;;;4857135;29;20389;-50
2023/08/11 05:05:34;;;;;;;10.27;3.15;;;19.50;99.90;;;;;;4842456;29;20078;-49
2023/08/11 05:08:01;;;;;;;7.68;2.45;;;19.60;99.90;;;;;;4842974;29;20038;-52
2023/08/11 05:10:27;;;;;;;8.52;2.63;;;19.60;99.90;;;;;;4842875;29;20048;-56
2023/08/11 05:12:54;;;;;;;7.47;2.40;;;19.60;99.90;;;;;;4842832;29;20088;-53
2023/08/11 05:15:21;;;;;;;9.30;2.60;;;19.60;99.90;;;;;;4842534;29;20122;-54
2023/08/11 05:17:48;;;;;;;8.30;2.50;;;19.60;99.90;;;;;;4842589;29;20113;-53
2023/08/11 05:20:15;;;;;;;7.10;1.90;;;19.60;99.90;;;;;;4842503;29;20048;-56
2023/08/11 05:22:43;;;;;;;7.13;2.08;;;19.60;99.90;;;;;;4842515;29;20116;-56
2023/08/11 05:25:10;;;;;;;4.88;1.85;;;19.60;99.90;;;;;;4842607;29;20053;-54
2023/08/11 05:27:37;;;;;;;5.18;1.50;;;19.60;99.90;;;;;;4842490;29;20049;-54
2023/08/11 05:30:03;;;;;;;5.68;1.80;;;19.70;99.90;;;;;;4842543;29;20075;-56
2023/08/11 05:32:31;;;;;;;4.07;1.75;;;19.70;99.90;;;;;;4842502;29;20054;-52
2023/08/11 05:34:58;;;;;;;6.18;1.70;;;19.70;99.90;;;;;;4842395;29;20046;-51
2023/08/11 05:37:26;;;;;;;5.13;1.58;;;19.70;99.90;;;;;;4842661;29;20126;-55
2023/08/11 05:39:53;;;;;;;4.65;1.40;;;19.70;99.90;;;;;;4842086;29;20042;-52
2023/08/11 05:42:20;;;;;;;4.85;1.65;;;19.70;99.90;;;;;;4842035;29;20049;-56
2023/08/11 05:44:47;;;;;;;6.38;1.30;;;19.70;99.90;;;;;;4842139;29;20065;-51
2023/08/11 05:47:13;;;;;;;4.68;1.30;;;19.70;99.90;;;;;;4841917;29;20121;-53
2023/08/11 05:49:40;;;;;;;8.88;1.65;;;19.70;99.90;;;;;;4841950;29;20046;-51
2023/08/11 05:52:07;;;;;;;5.68;1.20;;;19.80;99.90;;;;;;4842269;29;20078;-54
2023/08/11 05:54:34;;;;;;;4.95;1.15;;;19.80;99.90;;;;;;4842004;29;20090;-55
2023/08/11 05:57:00;;;;;;;5.65;1.55;;;19.90;99.90;;;;;;4841824;29;20064;-54
2023/08/11 05:59:27;;;;;;;4.00;1.45;;;19.90;99.90;;;;;;4842078;29;20033;-51
2023/08/11 06:01:54;;;;;;;7.55;2.05;;;19.90;99.90;;;;;;4841950;29;20050;-52
2023/08/11 06:04:20;;;;;;;7.50;2.13;;;20.00;99.90;;;;;;4842088;29;20049;-53
2023/08/11 06:06:47;;;;;;;6.00;2.13;;;20.00;99.90;;;;;;4842066;29;20038;-56
2023/08/11 06:09:14;;;;;;;8.20;2.30;;;20.00;99.90;;;;;;4842257;29;20451;-53
2023/08/11 06:11:41;;;;;;;6.47;2.22;;;20.00;99.90;;;;;;4841843;29;20049;-54
2023/08/11 06:14:07;;;;;;;8.85;2.88;;;20.00;99.90;;;;;;4841761;29;20102;-54
2023/08/11 06:16:34;;;;;;;8.55;3.30;;;20.10;99.90;;;;;;4840985;29;20485;-56
2023/08/11 06:19:01;;;;;;;6.75;3.55;;;20.10;99.90;;;;;;4842047;29;20042;-56
2023/08/11 06:21:28;;;;;;;7.97;3.38;;;20.10;99.90;;;;;;4856323;29;20034;-56
2023/08/11 06:23:55;;;;;;;8.13;4.10;;;20.20;99.90;;;;;;4841901;29;20042;-54
2023/08/11 06:26:21;;;;;;;9.30;4.40;;;20.30;99.90;;;;;;4841794;29;20044;-53
2023/08/11 06:28:48;;;;;;;7.03;4.05;;;20.30;99.90;;;;;;4841864;29;20054;-55
2023/08/11 06:31:15;;;;;;;9.60;4.35;;;20.40;99.90;;;;;;4841922;29;20042;-56
2023/08/11 06:33:42;;;;;;;7.38;3.72;;;20.40;99.90;;;;;;4841725;29;20053;-52
2023/08/11 06:36:09;;;;;;;6.97;2.70;;;20.30;99.90;;;;;;4841619;29;20542;-55
2023/08/11 06:38:35;;;;;;;5.93;2.13;;;20.30;99.90;;;;;;4838848;29;20402;-54
2023/08/11 06:41:03;;;;;;;9.10;2.47;;;20.20;99.90;;;;;;4841945;29;20389;-54
2023/08/11 06:43:30;;;;;;;7.97;2.85;;;20.20;99.90;;;;;;4855927;29;20046;-55
2023/08/11 06:45:57;;;;;;;7.95;2.25;;;20.10;99.90;;;;;;4839012;29;20498;-54
2023/08/11 06:48:27;;;;;;;7.13;2.45;;;20.20;99.90;;;;;;4855759;29;20467;-56
2023/08/11 06:50:56;;;;;;;6.90;2.13;;;20.20;99.90;;;;;;4841397;29;20049;-52
2023/08/11 06:53:23;;;;;;;9.02;2.30;;;20.20;99.90;;;;;;4841761;29;20045;-53
2023/08/11 06:55:50;;;;;;;7.43;2.17;;;20.20;99.90;;;;;;4841333;29;20106;-55
2023/08/11 06:58:16;;;;;;;6.80;2.10;;;20.30;99.90;;;;;;4841557;29;20049;-53
2023/08/11 07:00:43;;;;;;;6.30;1.80;;;20.30;99.90;;;;;;4841484;29;20044;-56
2023/08/11 07:03:10;;;;;;;5.82;2.03;;;20.40;99.90;;;;;;4841661;29;20397;-54
2023/08/11 07:05:37;;;;;;;9.98;2.28;;;20.40;99.90;;;;;;4839185;29;20045;-54
2023/08/11 07:08:04;;;;;;;6.70;1.92;;;20.40;99.90;;;;;;4841454;29;20050;-54
2023/08/11 07:10:30;;;;;;;3.92;1.40;;;20.40;99.90;;;;;;4841648;29;20053;-53
2023/08/11 07:12:57;;;;;;;7.47;1.80;;;20.40;99.90;;;;;;4841435;29;20046;-55
2023/08/11 07:15:24;;;;;;;6.30;1.63;;;20.40;99.90;;;;;;4840918;29;20532;-52
2023/08/11 07:17:51;;;;;;;6.05;1.70;;;20.50;99.90;;;;;;4840416;29;20081;-52
2023/08/11 07:20:17;;;;;;;5.80;1.85;;;20.50;99.90;;;;;;4854846;29;20069;-57
2023/08/11 07:22:44;;;;;;;6.50;1.63;;;20.50;99.90;;;;;;4841308;29;20057;-54
2023/08/11 07:25:11;;;;;;;6.43;1.50;;;20.60;99.90;;;;;;4841131;29;20050;-55
2023/08/11 07:27:38;;;;;;;5.55;1.50;;;20.70;99.90;;;;;;4842652;29;20526;-53
2023/08/11 07:30:05;;;;;;;5.60;1.40;;;20.80;99.90;;;;;;4844766;29;20044;-54
2023/08/11 07:32:31;;;;;;;5.85;1.50;;;20.80;99.90;;;;;;4844422;29;20042;-57
2023/08/11 07:34:58;;;;;;;5.13;1.45;;;20.80;99.90;;;;;;4844591;29;20038;-52
2023/08/11 07:37:25;;;;;;;4.70;1.60;;;20.80;99.90;;;;;;4844325;29;20045;-55
2023/08/11 07:39:52;;;;;;;6.38;2.90;;;20.80;99.90;;;;;;4844542;29;20166;-54
2023/08/11 07:42:18;;;;;;;21.17;18.15;;;20.90;99.90;;;;;;4844507;29;20038;-54
2023/08/11 07:44:45;;;;;;;7.70;2.17;;;21.00;99.90;;;;;;4844274;29;20108;-51
2023/08/11 07:47:12;;;;;;;5.38;2.03;;;21.10;99.90;;;;;;4844304;29;20413;-55
2023/08/11 07:49:38;;;;;;;8.15;2.03;;;21.10;99.90;;;;;;4844076;29;20050;-51
2023/08/11 07:52:05;;;;;;;10.68;1.90;;;21.10;99.90;;;;;;4844296;29;20042;-55
2023/08/11 07:54:32;;;;;;;8.65;1.90;;;21.10;99.90;;;;;;4844366;29;20048;-50
2023/08/11 07:56:59;;;;;;;8.15;2.38;;;21.20;99.90;;;;;;4844045;29;20053;-55
2023/08/11 07:59:26;;;;;;;7.50;1.95;;;21.20;99.90;;;;;;4844300;29;20053;-55
2023/08/11 08:01:52;;;;;;;10.10;2.17;;;21.20;99.90;;;;;;4843834;29;20050;-54
2023/08/11 08:04:19;;;;;;;6.22;1.90;;;21.30;99.90;;;;;;4844345;29;20399;-50
2023/08/11 08:06:46;;;;;;;10.02;2.30;;;21.30;99.90;;;;;;4843812;29;20042;-54
2023/08/11 08:09:14;;;;;;;11.82;2.42;;;21.50;99.90;;;;;;4843711;29;20383;-55
2023/08/11 08:11:45;;;;;;;5.32;2.10;;;21.70;99.90;;;;;;4843347;29;20125;-52
2023/08/11 08:14:12;;;;;;;8.50;2.33;;;21.80;99.90;;;;;;4843454;29;20050;-53
2023/08/11 08:16:41;;;;;;;9.50;2.83;;;21.80;99.90;;;;;;4843508;29;20038;-53
2023/08/11 08:19:10;;;;;;;11.52;3.10;;;21.90;99.90;;;;;;4843517;29;20132;-54
2023/08/11 08:21:37;;;;;;;8.60;2.60;;;21.80;99.90;;;;;;4843076;29;20060;-51
2023/08/11 08:24:04;;;;;;;7.00;2.47;;;21.80;99.90;;;;;;4843626;29;20046;-58
2023/08/11 08:26:31;;;;;;;10.50;2.53;;;21.80;99.90;;;;;;4843050;29;20054;-54
2023/08/11 08:28:59;;;;;;;9.13;2.40;;;22.00;99.90;;;;;;4843456;29;20046;-50
2023/08/11 08:31:27;;;;;;;9.65;2.88;;;22.10;99.90;;;;;;4843031;29;20074;-53
2023/08/11 08:33:53;;;;;;;9.20;2.67;;;22.20;99.90;;;;;;4843489;29;20120;-53
2023/08/11 08:36:20;;;;;;;8.68;2.60;;;22.30;99.90;;;;;;4843351;29;20053;-52
2023/08/11 08:38:47;;;;;;;6.82;2.55;;;22.30;99.90;;;;;;4842092;29;20085;-53
2023/08/11 08:41:14;;;;;;;9.13;3.08;;;22.40;99.90;;;;;;4842923;29;20042;-51
2023/08/11 08:43:40;;;;;;;8.90;2.42;;;22.50;99.90;;;;;;4842487;29;20383;-52
2023/08/11 08:46:07;;;;;;;11.63;2.70;;;22.60;99.90;;;;;;4843038;29;20094;-58
2023/08/11 08:48:34;;;;;;;10.35;2.60;;;22.60;99.90;;;;;;4843115;29;20068;-55
2023/08/11 08:51:01;;;;;;;9.55;2.78;;;22.70;99.90;;;;;;4842527;29;20048;-54
2023/08/11 08:53:27;;;;;;;10.88;2.65;;;22.70;99.90;;;;;;4843317;29;20046;-51
2023/08/11 08:55:54;;;;;;;11.52;3.20;;;22.80;99.90;;;;;;4842296;29;20054;-55
2023/08/11 08:58:21;;;;;;;10.15;2.30;;;22.80;99.90;;;;;;4842870;29;20113;-54
2023/08/11 09:00:50;;;;;;;8.95;2.60;;;22.90;99.90;;;;;;4842374;29;20121;-53
2023/08/11 09:03:16;;;;;;;8.55;2.40;;;23.10;99.90;;;;;;4840588;29;20394;-55
2023/08/11 09:05:44;;;;;;;11.93;2.78;;;23.10;99.90;;;;;;4842381;29;20052;-55
2023/08/11 09:08:10;;;;;;;8.85;2.85;;;23.10;99.90;;;;;;4842501;29;20042;-53
2023/08/11 09:10:37;;;;;;;10.48;2.75;;;23.10;99.90;;;;;;4842366;29;20064;-52
2023/08/11 09:13:04;;;;;;;7.25;2.20;;;23.10;99.90;;;;;;4843316;29;20422;-54
2023/08/11 09:15:31;;;;;;;8.63;2.42;;;23.20;99.90;;;;;;4842709;29;20054;-55
2023/08/11 09:17:57;;;;;;;9.63;3.20;;;23.20;99.90;;;;;;4842644;29;20509;-57
2023/08/11 09:20:25;;;;;;;10.10;2.72;;;23.20;99.90;;;;;;4841911;29;20148;-54
2023/08/11 09:22:52;;;;;;;11.95;3.00;;;23.20;99.90;;;;;;4842611;29;20070;-55
2023/08/11 09:25:18;;;;;;;8.75;2.80;;;23.10;99.90;;;;;;4842030;29;20037;-56
2023/08/11 09:27:45;;;;;;;11.25;3.22;;;22.90;99.90;;;;;;4842282;29;20437;-51
2023/08/11 09:30:12;;;;;;;7.32;2.45;;;22.90;99.90;;;;;;4842302;29;20061;-58
2023/08/11 09:32:39;;;;;;;10.35;2.92;;;22.90;99.90;;;;;;4842084;29;20394;-57
2023/08/11 09:35:07;;;;;;;10.07;3.33;;;22.90;99.90;;;;;;4842318;29;20520;-56
2023/08/11 09:37:33;;;;;;;9.10;3.10;;;23.00;99.90;;;;;;4842144;29;20391;-55
2023/08/11 09:40:03;;;;;;;9.30;3.00;;;23.00;99.90;;;;;;4856399;29;20759;-58
2023/08/11 09:42:30;;;;;;;9.93;3.10;;;22.90;99.90;;;;;;4842079;29;20088;-54
2023/08/11 09:44:57;;;;;;;7.07;2.65;;;22.90;99.90;;;;;;4842394;29;20038;-55
2023/08/11 09:47:24;;;;;;;8.85;3.00;;;22.90;99.90;;;;;;4842047;29;20064;-55
2023/08/11 09:49:51;;;;;;;8.70;2.97;;;23.00;99.90;;;;;;4840362;29;20117;-57
2023/08/11 09:52:17;;;;;;;8.30;2.72;;;23.00;99.90;;;;;;4837710;29;20410;-57
2023/08/11 09:54:44;;;;;;;9.30;3.70;;;23.10;99.90;;;;;;4839532;29;20068;-54
2023/08/11 09:57:11;;;;;;;9.43;3.33;;;23.10;99.90;;;;;;4836637;29;20682;-58
2023/08/11 09:59:38;;;;;;;8.13;3.00;;;23.10;99.90;;;;;;4840784;29;20053;-55
2023/08/11 10:02:05;;;;;;;8.20;3.05;;;23.20;99.90;;;;;;4838724;29;20042;-57
2023/08/11 10:04:32;;;;;;;6.47;2.85;;;23.30;99.90;;;;;;4838614;29;20042;-57
2023/08/11 10:06:58;;;;;;;8.90;2.78;;;23.30;99.90;;;;;;4833219;29;20045;-57
2023/08/11 10:09:25;;;;;;;6.78;3.00;;;23.30;99.90;;;;;;4837852;29;20034;-57
2023/08/11 10:11:52;;;;;;;6.60;2.67;;;23.40;99.90;;;;;;4832562;29;20049;-54
2023/08/11 10:14:19;;;;;;;9.45;2.83;;;23.40;99.90;;;;;;4832498;29;20053;-55
2023/08/11 10:16:46;;;;;;;6.68;2.42;;;23.40;99.90;;;;;;4836953;29;20042;-57
2023/08/11 10:19:12;;;;;;;11.77;3.10;;;23.50;99.90;;;;;;4835291;29;20043;-54
2023/08/11 10:21:39;;;;;;;7.70;3.15;;;23.50;99.90;;;;;;4833497;29;20039;-58
2023/08/11 10:24:06;;;;;;;7.53;3.00;;;23.60;99.90;;;;;;4837171;29;20053;-51
2023/08/11 10:26:33;;;;;;;6.88;2.72;;;23.60;99.90;;;;;;4841380;29;20070;-54
2023/08/11 10:28:59;;;;;;;9.43;2.60;;;23.70;99.90;;;;;;4843929;29;20046;-54
2023/08/11 10:31:26;;;;;;;8.60;2.33;;;23.70;99.90;;;;;;4841599;29;20046;-53
2023/08/11 10:33:53;;;;;;;7.70;3.00;;;23.70;99.90;;;;;;4841360;29;20041;-57
2023/08/11 10:36:20;;;;;;;7.95;3.13;;;23.70;99.90;;;;;;4841661;29;20466;-57
2023/08/11 10:38:47;;;;;;;9.20;2.80;;;23.90;99.90;;;;;;4833712;29;20057;-55
2023/08/11 10:41:14;;;;;;;10.25;2.53;;;24.10;99.90;;;;;;4832415;29;20065;-57
2023/08/11 10:43:41;;;;;;;9.82;2.58;;;24.20;99.90;;;;;;4833466;29;20560;-56
2023/08/11 10:46:07;;;;;;;7.57;2.25;;;24.50;99.90;;;;;;4859351;29;20050;-57
2023/08/11 10:48:34;;;;;;;8.18;2.53;;;24.60;99.90;;;;;;4845902;29;20106;-53
2023/08/11 10:51:01;;;;;;;7.05;2.33;;;24.80;99.90;;;;;;4830669;29;20487;-54
2023/08/11 10:53:28;;;;;;;7.30;2.40;;;24.90;99.90;;;;;;4831748;29;20046;-52
2023/08/11 10:55:54;;;;;;;5.88;2.47;;;25.00;99.90;;;;;;4832389;29;20491;-54
2023/08/11 10:58:22;;;;;;;9.05;2.28;;;25.00;99.90;;;;;;4832006;29;20042;-53
2023/08/11 11:00:48;;;;;;;5.85;2.10;;;25.20;99.80;;;;;;4827836;29;20087;-57
2023/08/11 11:03:15;;;;;;;9.13;2.15;;;25.30;99.70;;;;;;4833910;29;20062;-54
2023/08/11 11:05:42;;;;;;;8.52;1.67;;;25.30;99.70;;;;;;4833129;29;20075;-54
2023/08/11 11:08:09;;;;;;;5.47;1.83;;;25.40;99.80;;;;;;4826173;29;20118;-57
2023/08/11 11:10:35;;;;;;;6.47;2.00;;;25.40;99.70;;;;;;4826316;29;20050;-56
2023/08/11 11:13:16;;;;;;;7.25;1.98;;;25.40;99.40;;;;;;4825933;29;20645;-57
2023/08/11 11:15:43;;;;;;;6.60;2.10;;;25.50;99.60;;;;;;4825769;29;20050;-57
2023/08/11 11:18:09;;;;;;;9.55;1.90;;;25.60;99.30;;;;;;4825730;29;20379;-52
2023/08/11 11:20:36;;;;;;;6.30;2.00;;;25.70;99.10;;;;;;4825708;29;20047;-55
2023/08/11 11:23:03;;;;;;;8.30;2.10;;;25.60;99.10;;;;;;4825831;29;20125;-54
2023/08/11 11:25:30;;;;;;;7.15;2.03;;;25.60;99.00;;;;;;4826373;29;20039;-57
2023/08/11 11:27:56;;;;;;;9.88;1.88;;;25.70;99.20;;;;;;4827460;29;20046;-56
2023/08/11 11:30:23;;;;;;;5.88;2.05;;;25.80;99.20;;;;;;4826660;29;20049;-57
2023/08/11 11:32:50;;;;;;;5.10;1.80;;;26.00;98.90;;;;;;4826161;29;20073;-54
2023/08/11 11:35:17;;;;;;;8.95;2.20;;;26.00;98.90;;;;;;4840237;29;20080;-57
2023/08/11 11:37:44;;;;;;;6.57;2.03;;;26.10;98.90;;;;;;4826056;29;20070;-57
2023/08/11 11:40:13;;;;;;;9.43;2.15;;;26.00;98.90;;;;;;4825899;29;20058;-53
2023/08/11 11:42:41;;;;;;;5.65;2.10;;;26.00;98.50;;;;;;4825850;29;20382;-57
2023/08/11 11:45:09;;;;;;;9.75;2.30;;;26.10;98.70;;;;;;4826094;29;20474;-58
2023/08/11 11:47:36;;;;;;;4.95;1.70;;;25.90;98.60;;;;;;4826218;29;20081;-57
2023/08/11 11:50:03;;;;;;;4.32;1.60;;;25.70;98.70;;;;;;4826465;29;20046;-55
2023/08/11 11:52:30;;;;;;;5.88;1.80;;;25.80;99.00;;;;;;4826766;29;20050;-54
2023/08/11 11:54:57;;;;;;;4.72;1.60;;;25.80;99.10;;;;;;4838543;29;20056;-53
2023/08/11 11:57:23;;;;;;;4.80;1.60;;;25.80;98.80;;;;;;4873669;29;20418;-56
2023/08/11 11:59:50;;;;;;;4.25;1.50;;;25.90;98.80;;;;;;4844779;29;20064;-55
2023/08/11 12:02:17;;;;;;;3.78;1.20;;;25.90;98.90;;;;;;4844103;29;20117;-58
2023/08/11 12:04:46;;;;;;;9.85;1.95;;;25.80;99.00;;;;;;4844426;29;20136;-58
2023/08/11 12:07:13;;;;;;;4.20;1.63;;;25.80;99.00;;;;;;4838277;29;20090;-56
2023/08/11 12:09:39;;;;;;;7.75;1.75;;;25.80;98.80;;;;;;4835337;29;20043;-57
2023/08/11 12:12:06;;;;;;;4.55;1.63;;;25.70;98.80;;;;;;4834127;29;20057;-57
2023/08/11 12:14:34;;;;;;;3.63;1.45;;;25.70;98.90;;;;;;4834720;29;20510;-56
2023/08/11 12:17:00;;;;;;;5.53;2.25;;;25.80;99.10;;;;;;4848608;29;20074;-58
2023/08/11 12:19:27;;;;;;;5.88;1.73;;;25.80;98.90;;;;;;4834125;29;20073;-56
2023/08/11 12:21:54;;;;;;;7.13;1.80;;;25.90;98.90;;;;;;4833806;29;20038;-54
2023/08/11 12:24:21;;;;;;;6.72;1.80;;;26.00;98.80;;;;;;4835180;29;20061;-56
2023/08/11 12:26:48;;;;;;;5.03;1.52;;;26.10;98.70;;;;;;4835416;29;20046;-56
2023/08/11 12:29:15;;;;;;;3.38;1.40;;;26.20;98.60;;;;;;4835712;29;20061;-56
2023/08/11 12:31:41;;;;;;;5.00;1.70;;;26.20;98.40;;;;;;4834478;29;20046;-56
2023/08/11 12:34:11;;;;;;;8.05;1.88;;;26.10;98.20;;;;;;4833668;29;20050;-54
2023/08/11 12:36:38;;;;;;;5.03;1.80;;;26.10;98.40;;;;;;4833688;29;20056;-55
2023/08/11 12:39:07;;;;;;;4.82;1.77;;;26.00;98.40;;;;;;4862114;29;20076;-51
2023/08/11 12:41:34;;;;;;;4.53;1.77;;;25.90;98.60;;;;;;4835788;29;20095;-56